Time;durP1;ratioP1;P1;durP2;ratioP2;P2;SDS_P1;SDS_P2;PMS_P1;PMS_P2;Temp;Humidity;BMP_temperature;BMP_pressure;BME280_temperature;BME280_humidity;BME280_pressure;Samples;Min_cycle;Max_cycle;Signal;HPM_P1;HPM_P2
2022/01/04 00:01:19;;;;;;;18.07;9.07;;;7.90;82.60;;;7.77;59.13;94928.34;4987070;28;20550;-56
2022/01/04 00:03:46;;;;;;;16.50;8.83;;;7.80;82.90;;;7.74;59.00;94923.34;4987587;28;20868;-62
2022/01/04 00:06:13;;;;;;;13.23;8.40;;;7.80;83.10;;;7.74;58.69;94929.41;4984322;28;20569;-58
2022/01/04 00:08:41;;;;;;;16.60;9.10;;;7.80;83.50;;;7.73;59.56;94919.91;4988304;28;20863;-56
2022/01/04 00:11:16;;;;;;;15.30;8.30;;;7.70;83.60;;;7.73;59.35;94922.53;4985765;28;20475;-57
2022/01/04 00:13:43;;;;;;;14.60;8.53;;;7.70;83.80;;;7.72;58.67;94920.84;4985563;28;21042;-56
2022/01/04 00:16:11;;;;;;;15.77;9.00;;;7.70;83.60;;;7.69;59.44;94919.28;4990491;28;20470;-56
2022/01/04 00:18:38;;;;;;;17.70;9.10;;;7.70;83.80;;;7.68;59.75;94927.28;4989744;28;20490;-59
2022/01/04 00:21:05;;;;;;;22.43;8.80;;;7.70;84.20;;;7.65;59.44;94924.91;4990661;28;20474;-57
2022/01/04 00:23:33;;;;;;;21.77;9.33;;;7.70;84.40;;;7.62;60.14;94938.22;4992271;28;20477;-57
2022/01/04 00:26:00;;;;;;;15.50;9.20;;;7.70;85.40;;;7.59;60.07;94941.09;4990225;28;20466;-62
2022/01/04 00:28:29;;;;;;;16.13;9.40;;;7.60;84.60;;;7.57;59.82;94932.53;4990477;28;20470;-62
2022/01/04 00:30:56;;;;;;;17.17;8.80;;;7.60;84.60;;;7.58;59.54;94944.66;4991121;28;20860;-60
2022/01/04 00:33:24;;;;;;;15.13;8.90;;;7.60;84.80;;;7.54;59.56;94950.16;4989897;28;20497;-60
2022/01/04 00:35:51;;;;;;;14.63;9.97;;;7.60;84.80;;;7.50;59.54;94956.56;4991018;28;21121;-57
2022/01/04 00:38:18;;;;;;;17.53;9.40;;;7.50;85.10;;;7.47;59.83;94962.03;4990864;28;20454;-57
2022/01/04 00:40:45;;;;;;;17.77;9.33;;;7.50;85.10;;;7.43;59.99;94963.22;4988707;28;20470;-63
2022/01/04 00:43:13;;;;;;;16.33;9.73;;;7.50;85.00;;;7.38;59.89;94972.38;4989137;28;20465;-62
2022/01/04 00:45:42;;;;;;;14.40;8.70;;;7.40;85.40;;;7.32;59.89;94968.44;4989057;28;20473;-57
2022/01/04 00:50:55;;;;;;;14.90;10.20;;;7.40;85.50;;;7.22;60.71;94963.09;4985739;28;20462;-61
2022/01/04 00:53:22;;;;;;;18.33;10.40;;;7.30;86.50;;;7.14;60.83;94954.97;4987389;28;20494;-61
2022/01/04 00:55:49;;;;;;;19.03;11.53;;;7.20;86.00;;;7.04;60.28;94946.19;4988125;28;21042;-56
2022/01/04 00:58:16;;;;;;;22.20;10.20;;;7.10;86.30;;;6.96;60.41;94939.75;4989970;28;20497;-61
2022/01/04 01:00:45;;;;;;;18.37;11.50;;;7.00;86.20;;;6.93;61.20;94947.00;4986542;28;20497;-61
2022/01/04 01:03:13;;;;;;;22.60;10.40;;;7.00;86.80;;;6.90;60.94;94939.38;4989259;28;20979;-56
2022/01/04 01:05:40;;;;;;;21.60;10.47;;;7.00;87.20;;;6.89;60.94;94932.47;4991079;28;20533;-56
2022/01/04 01:08:07;;;;;;;23.60;10.30;;;6.90;87.50;;;6.86;61.39;94935.31;4989914;28;21041;-57
2022/01/04 01:10:46;;;;;;;18.73;11.60;;;6.90;87.20;;;6.82;61.21;94938.16;4988497;28;20501;-60
2022/01/04 01:13:14;;;;;;;18.53;10.03;;;6.90;87.80;;;6.79;61.34;94938.38;4987299;28;20482;-56
2022/01/04 01:15:44;;;;;;;21.30;10.00;;;6.80;87.90;;;6.78;61.28;94931.47;4989118;28;20482;-56
2022/01/04 01:18:15;;;;;;;15.97;10.10;;;6.80;87.80;;;6.77;61.40;94935.06;4989189;28;20451;-56
2022/01/04 01:20:42;;;;;;;17.27;10.10;;;6.80;88.20;;;6.74;61.67;94940.53;4990235;28;20486;-61
2022/01/04 01:23:09;;;;;;;19.47;10.63;;;6.80;88.70;;;6.71;61.44;94932.91;4989204;28;20447;-61
2022/01/04 01:25:37;;;;;;;18.50;10.63;;;6.80;88.40;;;6.67;61.52;94934.09;4989613;28;20472;-62
2022/01/04 01:28:04;;;;;;;18.73;11.97;;;6.70;88.60;;;6.65;62.12;94930.75;4989475;28;20529;-56
2022/01/04 01:30:35;;;;;;;18.50;11.27;;;6.70;88.70;;;6.63;61.72;94927.41;4989286;28;20486;-62
2022/01/04 01:33:02;;;;;;;19.07;10.83;;;6.70;88.90;;;6.61;61.94;94924.91;4987939;28;20592;-56
2022/01/04 01:35:33;;;;;;;21.23;11.33;;;6.70;88.70;;;6.57;61.84;94925.28;4989162;28;20475;-61
2022/01/04 01:38:00;;;;;;;23.17;11.10;;;6.60;88.80;;;6.54;61.90;94928.13;4989548;28;20450;-61
2022/01/04 01:40:28;;;;;;;20.40;11.93;;;6.60;88.90;;;6.50;61.72;94926.66;4989001;28;20470;-57
2022/01/04 01:42:56;;;;;;;23.30;12.70;;;6.60;89.10;;;6.49;62.56;94940.66;4988294;28;20454;-56
2022/01/04 01:45:23;;;;;;;17.70;10.80;;;6.60;89.30;;;6.48;61.98;94950.28;4990957;28;20600;-61
2022/01/04 01:47:50;;;;;;;23.50;11.83;;;6.50;89.20;;;6.45;62.04;94946.13;4984672;28;20454;-62
2022/01/04 01:50:18;;;;;;;23.07;12.53;;;6.50;89.30;;;6.44;61.88;94933.16;4988409;28;20471;-57
2022/01/04 01:52:48;;;;;;;21.73;11.10;;;6.50;89.40;;;6.42;62.17;94935.06;4986456;28;20982;-62
2022/01/04 01:55:16;;;;;;;22.30;12.17;;;6.50;89.80;;;6.39;62.10;94940.53;4989190;28;20475;-56
2022/01/04 01:57:43;;;;;;;20.87;11.73;;;6.50;89.70;;;6.36;62.46;94932.91;4988458;28;20466;-60
2022/01/04 02:00:13;;;;;;;18.10;11.33;;;6.50;89.70;;;6.35;62.13;94920.78;4988935;28;20471;-57
2022/01/04 02:02:40;;;;;;;17.87;11.30;;;6.40;89.80;;;6.31;61.97;94928.03;4990174;28;20510;-60
2022/01/04 02:05:08;;;;;;;15.93;10.70;;;6.40;89.60;;;6.29;62.28;94924.69;4986131;28;20474;-57
2022/01/04 02:07:37;;;;;;;17.40;10.17;;;6.40;90.00;;;6.27;62.91;94931.78;4991780;28;20477;-56
2022/01/04 02:10:07;;;;;;;16.23;10.10;;;6.30;90.10;;;6.26;62.64;94932.75;4989024;28;20474;-61
2022/01/04 02:12:36;;;;;;;16.60;11.30;;;6.30;90.00;;;6.21;62.41;94922.66;4988898;28;20485;-61
2022/01/04 02:15:03;;;;;;;16.53;10.47;;;6.30;90.20;;;6.19;62.55;94924.53;4990783;28;21095;-57
2022/01/04 02:17:30;;;;;;;14.73;10.07;;;6.30;90.20;;;6.16;62.79;94919.53;4989385;28;20466;-63
2022/01/04 02:19:59;;;;;;;16.13;10.23;;;6.30;90.20;;;6.17;62.91;94925.59;4987529;28;20840;-60
2022/01/04 02:22:26;;;;;;;23.13;11.07;;;6.20;90.20;;;6.13;62.81;94919.75;4986915;28;20455;-57
2022/01/04 02:24:54;;;;;;;18.33;10.40;;;6.20;90.40;;;6.09;63.13;94913.91;4986440;28;20475;-61
2022/01/04 02:27:22;;;;;;;15.73;10.53;;;6.20;90.60;;;6.07;63.00;94923.66;4990534;28;20966;-61
2022/01/04 02:29:49;;;;;;;19.53;10.63;;;6.20;90.50;;;6.06;62.90;94923.75;4987015;28;20466;-58
2022/01/04 02:32:16;;;;;;;22.63;11.83;;;6.10;90.60;;;6.01;62.85;94921.47;4986898;28;20458;-61
2022/01/04 02:34:49;;;;;;;20.43;10.23;;;6.10;90.60;;;5.95;63.66;94924.50;4989425;28;20865;-61
2022/01/04 02:37:20;;;;;;;14.57;10.43;;;6.10;91.00;;;5.91;63.51;94929.09;4987413;28;20545;-60
2022/01/04 02:39:48;;;;;;;19.70;10.93;;;6.00;90.90;;;5.89;63.13;94919.72;4986083;28;20509;-57
2022/01/04 02:42:15;;;;;;;16.30;9.70;;;6.00;90.80;;;5.87;63.40;94919.84;4986832;28;20464;-57
2022/01/04 02:44:43;;;;;;;16.00;9.93;;;6.00;91.00;;;5.84;63.42;94913.97;4986658;28;20469;-60
2022/01/04 02:47:10;;;;;;;12.20;9.53;;;5.90;90.90;;;5.82;63.40;94916.69;4985451;28;20461;-57
2022/01/04 02:49:37;;;;;;;13.63;9.17;;;5.90;91.00;;;5.82;63.38;94910.66;4988273;28;20862;-60
2022/01/04 02:52:05;;;;;;;14.30;10.20;;;5.90;91.00;;;5.81;63.59;94909.84;4987281;28;20458;-60
2022/01/04 02:54:34;;;;;;;13.07;9.60;;;5.90;91.00;;;5.80;63.97;94913.38;4986595;28;20502;-61
2022/01/04 02:57:01;;;;;;;14.43;9.50;;;5.90;91.10;;;5.79;63.79;94909.09;4986944;28;20956;-57
2022/01/04 02:59:29;;;;;;;15.40;8.67;;;5.90;91.30;;;5.75;64.05;94903.25;4988388;28;20453;-56
2022/01/04 03:01:56;;;;;;;13.30;8.97;;;5.90;91.30;;;5.76;63.76;94901.47;4985929;28;20982;-56
2022/01/04 03:04:23;;;;;;;14.57;9.90;;;5.90;91.30;;;5.74;63.83;94896.38;4988614;28;20536;-57
2022/01/04 03:06:50;;;;;;;14.50;9.27;;;5.80;91.20;;;5.74;63.79;94898.16;4985109;28;21003;-61
2022/01/04 03:09:18;;;;;;;11.13;8.93;;;5.80;91.30;;;5.74;63.98;94903.38;4985872;28;21001;-56
2022/01/04 03:11:47;;;;;;;13.87;8.70;;;5.80;91.30;;;5.71;63.75;94904.41;4981420;28;20475;-61
2022/01/04 03:14:14;;;;;;;14.73;8.83;;;5.80;91.30;;;5.70;64.18;94907.13;4988289;28;20509;-56
2022/01/04 03:16:41;;;;;;;14.57;8.93;;;5.80;91.50;;;5.69;64.13;94911.53;4986248;28;20486;-57
2022/01/04 03:19:10;;;;;;;15.73;9.90;;;5.80;91.50;;;5.67;63.80;94904.75;4992097;28;20466;-56
2022/01/04 03:21:39;;;;;;;11.40;8.73;;;5.80;91.30;;;5.66;63.97;94909.13;4990715;28;20558;-57
2022/01/04 03:24:08;;;;;;;16.87;9.73;;;5.80;91.30;;;5.63;64.42;94906.75;4991950;28;20503;-56
2022/01/04 03:26:36;;;;;;;15.20;9.73;;;5.70;91.30;;;5.62;63.99;94904.25;4989979;28;20489;-57
2022/01/04 03:29:05;;;;;;;18.43;9.97;;;5.70;91.50;;;5.60;63.92;94901.75;4990664;28;20459;-59
2022/01/04 03:31:32;;;;;;;15.60;9.90;;;5.70;91.40;;;5.60;64.31;94903.53;4991978;28;20486;-56
2022/01/04 03:34:00;;;;;;;17.07;9.40;;;5.70;91.50;;;5.58;63.99;94916.69;4990567;28;21077;-61
2022/01/04 03:36:27;;;;;;;17.30;10.00;;;5.70;91.60;;;5.56;64.42;94910.72;4990769;28;20558;-56
2022/01/04 03:38:55;;;;;;;18.67;10.30;;;5.70;91.70;;;5.53;65.25;94910.94;4990759;28;20550;-62
2022/01/04 03:41:24;;;;;;;17.60;11.40;;;5.60;92.40;;;5.52;64.63;94909.28;4993928;28;20482;-57
2022/01/04 03:43:51;;;;;;;17.47;10.60;;;5.60;92.00;;;5.50;64.49;94906.78;4991661;28;20461;-58
2022/01/04 03:46:20;;;;;;;19.47;11.40;;;5.60;91.90;;;5.50;64.40;94921.59;4990319;28;20477;-56
2022/01/04 03:48:47;;;;;;;20.60;11.50;;;5.60;92.00;;;5.50;64.45;94917.22;4991332;28;20455;-60
2022/01/04 03:51:14;;;;;;;14.27;10.53;;;5.60;91.90;;;5.49;64.59;94917.34;4991616;28;20553;-60
2022/01/04 03:53:42;;;;;;;19.67;10.60;;;5.60;91.90;;;5.48;64.61;94915.66;4992190;28;20494;-57
2022/01/04 03:56:10;;;;;;;17.93;11.10;;;5.60;92.00;;;5.44;64.53;94922.00;4991863;28;20477;-56
2022/01/04 03:58:37;;;;;;;17.10;11.00;;;5.60;92.00;;;5.42;64.76;94927.34;4987835;28;20450;-58
2022/01/04 04:01:05;;;;;;;16.27;11.07;;;5.50;92.20;;;5.39;64.68;94923.19;4991059;28;20893;-60
2022/01/04 04:03:33;;;;;;;22.83;10.53;;;5.50;92.10;;;5.38;64.40;94918.91;4991186;28;20908;-56
2022/01/04 04:06:01;;;;;;;19.70;12.63;;;5.50;92.00;;;5.36;64.89;94919.94;4987578;28;20474;-57
2022/01/04 04:08:28;;;;;;;22.60;11.23;;;5.50;92.10;;;5.33;64.97;94915.78;4991398;28;20462;-63
2022/01/04 04:10:55;;;;;;;19.37;11.87;;;5.50;92.20;;;5.31;64.78;94911.63;4991432;28;20477;-61
2022/01/04 04:13:23;;;;;;;18.23;11.37;;;5.50;92.10;;;5.29;64.74;94918.72;4992089;28;20462;-59
2022/01/04 04:15:50;;;;;;;19.50;11.67;;;5.40;92.20;;;5.27;65.11;94911.00;4988156;28;20822;-62
2022/01/04 04:18:17;;;;;;;19.23;11.50;;;5.40;92.30;;;5.25;64.68;94918.09;4991722;28;20462;-57
2022/01/04 04:20:46;;;;;;;25.87;12.27;;;5.40;92.20;;;5.24;64.67;94913.81;4989949;28;20598;-60
2022/01/04 04:23:13;;;;;;;21.00;12.60;;;5.40;92.20;;;5.22;64.79;94913.09;4989896;28;20486;-57
2022/01/04 04:25:41;;;;;;;20.20;13.57;;;5.30;92.10;;;5.18;65.01;94922.06;4990008;28;20896;-61
2022/01/04 04:28:08;;;;;;;16.93;10.87;;;5.30;92.30;;;5.16;64.99;94919.56;4988535;28;20457;-55
2022/01/04 04:30:36;;;;;;;20.60;12.60;;;5.30;92.30;;;5.13;65.33;94919.78;4992217;28;20478;-61
2022/01/04 04:33:03;;;;;;;21.70;10.50;;;5.30;92.30;;;5.11;65.00;94931.25;4989898;28;20450;-57
2022/01/04 04:35:31;;;;;;;19.37;12.70;;;5.30;92.20;;;5.08;64.80;94931.44;4990858;28;20497;-60
2022/01/04 04:38:00;;;;;;;21.80;11.97;;;5.20;92.30;;;5.05;64.99;94944.69;4990405;28;20470;-58
2022/01/04 04:40:28;;;;;;;23.50;14.40;;;5.20;92.30;;;5.00;65.61;94945.84;4990361;28;20516;-57
2022/01/04 04:42:56;;;;;;;21.60;11.10;;;5.20;92.60;;;4.96;65.18;94948.78;4991738;28;20466;-62
2022/01/04 04:45:23;;;;;;;21.90;13.13;;;5.10;92.60;;;4.91;65.12;94945.63;4989071;28;20533;-58
2022/01/04 04:47:51;;;;;;;22.13;13.13;;;5.10;92.60;;;4.89;65.16;94947.50;4990343;28;20529;-57
2022/01/04 04:50:18;;;;;;;24.40;12.70;;;5.00;92.50;;;4.86;65.33;94932.91;4990926;28;20475;-58
2022/01/04 04:52:45;;;;;;;22.90;13.47;;;5.00;92.80;;;4.85;65.39;94933.88;4988959;28;20461;-58
2022/01/04 04:55:14;;;;;;;21.80;13.63;;;5.00;92.80;;;4.83;65.54;94940.94;4988950;28;20486;-60
2022/01/04 04:57:42;;;;;;;22.90;13.33;;;5.00;92.80;;;4.82;65.24;94941.88;4988428;28;20458;-60
2022/01/04 05:00:10;;;;;;;25.63;14.37;;;4.90;92.70;;;4.80;65.11;94952.41;4990437;28;20474;-57
2022/01/04 05:02:38;;;;;;;48.17;15.17;;;4.90;92.60;;;4.76;65.31;94956.16;4988537;28;20451;-59
2022/01/04 05:05:07;;;;;;;45.43;17.20;;;4.90;92.70;;;4.73;65.20;94947.72;4985362;28;20478;-59
2022/01/04 05:07:35;;;;;;;39.00;16.07;;;4.90;92.70;;;4.71;65.54;94953.03;4986976;28;20491;-60
2022/01/04 05:10:03;;;;;;;24.60;15.03;;;4.90;92.70;;;4.67;65.79;94954.97;4990939;28;20478;-58
2022/01/04 05:12:32;;;;;;;36.17;14.17;;;4.90;92.70;;;4.70;65.90;94947.91;4987622;28;20461;-59
2022/01/04 05:14:59;;;;;;;27.57;16.43;;;4.90;92.70;;;4.69;65.63;94954.88;4987145;28;20859;-58
2022/01/04 05:17:26;;;;;;;34.50;19.57;;;4.90;92.70;;;4.65;65.94;94951.66;4988253;28;20458;-61
2022/01/04 05:19:53;;;;;;;33.33;19.40;;;4.80;92.90;;;4.62;66.02;94944.03;4987547;28;20478;-58
2022/01/04 05:22:21;;;;;;;27.70;15.53;;;4.80;93.00;;;4.62;65.41;94946.66;4985771;28;20450;-56
2022/01/04 05:24:48;;;;;;;32.70;16.10;;;4.80;92.70;;;4.59;65.67;94946.84;4990113;28;20493;-59
2022/01/04 05:27:15;;;;;;;28.27;12.87;;;4.80;92.70;;;4.56;65.60;94936.63;4987220;28;20466;-58
2022/01/04 05:29:44;;;;;;;24.27;13.37;;;4.70;92.90;;;4.56;65.84;94938.41;4988605;28;20477;-56
2022/01/04 05:32:11;;;;;;;22.43;13.00;;;4.70;92.70;;;4.52;65.66;94942.97;4985766;28;20935;-57
2022/01/04 05:34:39;;;;;;;25.63;13.97;;;4.70;92.90;;;4.49;65.79;94935.34;4987147;28;20494;-63
2022/01/04 05:37:06;;;;;;;24.23;12.43;;;4.70;92.90;;;4.49;65.61;94941.44;4988117;28;20899;-62
2022/01/04 05:39:34;;;;;;;27.20;15.43;;;4.70;93.00;;;4.50;65.70;94937.03;4986551;28;20541;-64
2022/01/04 05:42:01;;;;;;;29.47;15.07;;;4.60;93.10;;;4.50;65.92;94939.63;4987889;28;20462;-58
2022/01/04 05:44:28;;;;;;;28.53;13.93;;;4.70;93.10;;;4.52;65.73;94940.38;4987363;28;20466;-61
2022/01/04 05:46:57;;;;;;;28.60;14.87;;;4.70;93.20;;;4.53;66.38;94936.84;4984909;28;20475;-59
2022/01/04 05:49:24;;;;;;;20.43;12.07;;;4.70;93.50;;;4.55;66.39;94931.53;4987035;28;20461;-58
2022/01/04 05:51:52;;;;;;;27.83;15.43;;;4.70;93.50;;;4.56;66.14;94934.03;4986861;28;20450;-57
2022/01/04 05:54:19;;;;;;;24.70;15.50;;;4.70;93.50;;;4.58;66.47;94942.56;4989358;28;20618;-63
2022/01/04 05:56:46;;;;;;;25.60;14.90;;;4.70;93.70;;;4.60;66.55;94938.09;4986679;28;20478;-63
2022/01/04 05:59:13;;;;;;;32.90;17.37;;;4.70;93.80;;;4.61;66.61;94934.53;4986910;28;20450;-64
2022/01/04 06:01:41;;;;;;;33.10;18.07;;;4.70;93.60;;;4.62;66.08;94938.00;4985491;28;20474;-61
2022/01/04 06:04:10;;;;;;;35.73;18.20;;;4.80;93.70;;;4.63;66.17;94937.06;4986000;28;20846;-62
2022/01/04 06:06:39;;;;;;;32.33;17.67;;;4.80;93.70;;;4.66;66.14;94939.44;4984500;28;20556;-61
2022/01/04 06:09:08;;;;;;;26.33;17.10;;;4.80;93.60;;;4.67;65.88;94930.72;4986204;28;20971;-62
2022/01/04 06:11:56;;;;;;;34.50;18.53;;;4.80;93.60;;;4.71;65.90;94929.56;4987696;28;20474;-57
2022/01/04 06:17:09;;;;;;;36.87;19.33;;;4.90;93.50;;;4.74;66.03;94944.16;4988003;28;20842;-57
2022/01/04 06:19:38;;;;;;;31.20;18.37;;;4.90;93.70;;;4.77;65.79;94944.81;4988952;28;20598;-57
2022/01/04 06:22:06;;;;;;;35.23;19.60;;;4.90;93.30;;;4.81;65.87;94941.03;4989279;28;20461;-62
2022/01/04 06:24:33;;;;;;;36.43;17.97;;;4.90;93.30;;;4.85;65.36;94937.28;4990269;28;21041;-63
2022/01/04 06:27:00;;;;;;;31.30;17.90;;;5.00;93.20;;;4.93;65.57;94935.94;4990036;28;20461;-63
2022/01/04 06:29:28;;;;;;;34.23;18.13;;;5.00;93.10;;;5.02;65.36;94930.94;4989619;28;20463;-56
2022/01/04 06:31:55;;;;;;;39.73;19.57;;;5.10;93.10;;;5.13;64.97;94913.75;4988490;28;20451;-57
2022/01/04 06:34:22;;;;;;;37.10;19.10;;;5.20;92.90;;;5.22;64.87;94918.31;4988864;28;20455;-57
2022/01/04 06:36:51;;;;;;;30.60;19.00;;;5.30;93.20;;;5.32;64.53;94916.72;4988851;28;20529;-58
2022/01/04 06:39:18;;;;;;;43.27;22.73;;;5.40;92.70;;;5.42;64.37;94921.28;4988954;28;20446;-58
2022/01/04 06:41:45;;;;;;;36.20;18.53;;;5.50;92.50;;;5.52;64.48;94922.34;4989635;28;20540;-57
2022/01/04 06:44:13;;;;;;;28.47;17.33;;;5.60;92.30;;;5.60;63.96;94927.84;4989482;28;20455;-62
2022/01/04 06:46:45;;;;;;;26.40;17.83;;;5.70;91.90;;;5.63;63.25;94921.56;4987774;28;20486;-57
2022/01/04 06:49:13;;;;;;;27.13;17.13;;;5.80;91.70;;;5.68;63.17;94925.50;4987427;28;20453;-57
2022/01/04 06:51:40;;;;;;;30.00;17.67;;;5.80;91.50;;;5.73;62.99;94912.13;4993068;28;20925;-58
2022/01/04 06:54:09;;;;;;;30.83;17.33;;;5.90;91.40;;;5.75;62.67;94913.69;4993225;28;20463;-62
2022/01/04 06:56:36;;;;;;;46.93;18.00;;;5.90;91.20;;;5.77;62.89;94923.22;4993404;28;20494;-62
2022/01/04 06:59:04;;;;;;;35.83;16.90;;;5.90;91.10;;;5.80;62.54;94923.81;4993120;28;20858;-63
2022/01/04 07:01:31;;;;;;;31.17;16.43;;;6.00;91.10;;;5.86;62.49;94930.38;4992579;28;21006;-58
2022/01/04 07:03:58;;;;;;;27.73;15.27;;;6.00;91.10;;;5.92;62.28;94933.38;4992888;28;20991;-62
2022/01/04 07:06:26;;;;;;;26.30;14.90;;;6.00;91.00;;;6.01;62.22;94937.16;4992029;28;20489;-62
2022/01/04 07:08:53;;;;;;;26.57;14.53;;;6.10;91.30;;;6.20;62.07;94935.81;4991052;28;20462;-58
2022/01/04 07:11:22;;;;;;;27.23;15.10;;;6.30;90.90;;;6.42;62.07;94929.84;4992933;28;20852;-62
2022/01/04 07:13:49;;;;;;;26.23;14.87;;;6.50;90.70;;;6.76;61.70;94930.78;4990471;28;20993;-63
2022/01/04 07:16:17;;;;;;;23.43;14.33;;;6.80;90.60;;;7.22;60.14;94929.09;4992153;28;20888;-63
2022/01/04 07:18:48;;;;;;;25.63;15.07;;;7.20;90.20;;;7.68;59.67;94927.28;4991394;28;20451;-59
2022/01/04 07:21:16;;;;;;;25.67;15.23;;;7.70;89.30;;;8.11;58.40;94928.28;4992134;28;20473;-62
2022/01/04 07:23:43;;;;;;;28.60;16.30;;;8.10;87.70;;;8.46;58.01;94929.84;4994920;28;20538;-59
2022/01/04 07:26:11;;;;;;;32.53;18.93;;;8.50;86.30;;;8.79;57.15;94932.31;4990343;28;20477;-61
2022/01/04 07:28:40;;;;;;;33.97;18.17;;;8.90;85.00;;;9.15;56.61;94931.97;4992148;28;20489;-59
2022/01/04 07:31:07;;;;;;;46.50;20.67;;;9.30;83.60;;;9.49;55.60;94926.50;4991077;28;20539;-58
2022/01/04 07:33:35;;;;;;;32.93;19.93;;;9.60;82.50;;;9.77;55.18;94921.47;4990645;28;20465;-62
2022/01/04 07:36:02;;;;;;;33.97;19.90;;;9.90;81.00;;;9.95;54.81;94929.56;4991751;28;20521;-58
2022/01/04 07:38:29;;;;;;;29.53;17.07;;;10.20;78.90;;;10.10;53.78;94933.47;4990626;28;20528;-57
2022/01/04 07:40:57;;;;;;;30.23;18.83;;;10.30;77.10;;;10.26;53.32;94913.72;4987730;28;20474;-62
2022/01/04 07:43:24;;;;;;;29.00;18.87;;;10.50;76.10;;;10.49;53.35;94909.06;4996093;28;21067;-58
2022/01/04 07:45:53;;;;;;;32.30;16.67;;;10.70;76.10;;;10.70;52.67;94904.44;4992861;28;20509;-57
2022/01/04 07:48:21;;;;;;;28.80;16.47;;;10.90;75.60;;;10.88;52.51;94911.66;4988387;28;20563;-63
2022/01/04 07:50:49;;;;;;;26.23;15.73;;;11.00;74.60;;;10.93;52.05;94925.22;4991221;28;20863;-62
2022/01/04 07:53:16;;;;;;;30.67;17.03;;;11.10;73.60;;;10.93;52.23;94925.22;4992443;28;20454;-65
2022/01/04 07:55:44;;;;;;;37.70;18.10;;;11.10;73.60;;;10.97;51.91;94937.13;4993678;28;20501;-58
2022/01/04 07:58:11;;;;;;;29.20;18.33;;;11.10;73.60;;;10.94;52.25;94921.63;4995013;28;20451;-62
2022/01/04 08:00:39;;;;;;;30.60;17.80;;;11.00;73.30;;;10.93;52.15;94928.66;4990932;28;20482;-59
2022/01/04 08:03:10;;;;;;;28.20;16.90;;;11.00;73.40;;;10.96;51.83;94919.66;4990935;28;20820;-62
2022/01/04 08:05:38;;;;;;;28.17;17.40;;;11.00;72.70;;;11.07;52.42;94916.03;4991725;28;21101;-59
2022/01/04 08:08:06;;;;;;;31.33;17.50;;;11.10;73.70;;;11.27;51.99;94906.31;4992018;28;20454;-59
2022/01/04 08:10:33;;;;;;;28.57;17.70;;;11.20;73.70;;;11.44;51.62;94907.34;4991144;28;20482;-62
2022/01/04 08:13:00;;;;;;;33.40;20.57;;;11.40;73.10;;;11.70;51.60;94912.78;4991854;28;20490;-57
2022/01/04 08:15:28;;;;;;;33.07;18.33;;;11.60;73.10;;;11.92;50.86;94910.75;4989535;28;20494;-63
2022/01/04 08:17:55;;;;;;;27.93;17.80;;;11.80;72.40;;;12.12;50.48;94911.50;4990731;28;20470;-63
2022/01/04 08:20:24;;;;;;;34.20;19.07;;;12.00;71.30;;;12.34;49.92;94918.16;4991589;28;20482;-64
2022/01/04 08:22:51;;;;;;;33.10;18.00;;;12.20;70.70;;;12.55;49.77;94908.13;4990818;28;20457;-64
2022/01/04 08:25:19;;;;;;;29.50;18.27;;;12.40;70.20;;;12.81;49.31;94903.91;4991529;28;20473;-64
2022/01/04 08:27:46;;;;;;;28.13;18.33;;;12.60;68.70;;;13.04;49.20;94901.59;4993406;28;20463;-60
2022/01/04 08:30:13;;;;;;;33.63;20.00;;;12.80;68.90;;;13.19;46.98;94902.69;4992016;28;20558;-64
2022/01/04 08:32:41;;;;;;;30.57;19.37;;;13.00;65.90;;;13.10;48.28;94893.06;4991630;28;20461;-61
2022/01/04 08:35:09;;;;;;;34.73;20.80;;;13.00;65.90;;;12.89;48.56;94888.97;4991807;28;20844;-64
2022/01/04 08:37:38;;;;;;;40.50;20.70;;;12.80;65.70;;;12.76;48.60;94888.50;4988723;28;20550;-64
2022/01/04 08:40:07;;;;;;;35.87;21.57;;;12.80;67.10;;;12.74;48.85;94882.56;4990919;28;20478;-58
2022/01/04 08:42:35;;;;;;;36.73;20.60;;;12.70;67.20;;;12.70;48.97;94887.34;4991351;28;20459;-59
2022/01/04 08:45:02;;;;;;;33.03;20.93;;;12.70;67.10;;;12.69;49.11;94887.50;4991768;28;21069;-59
2022/01/04 08:47:30;;;;;;;47.13;22.50;;;12.60;67.00;;;12.66;49.16;94887.78;4989275;28;20446;-61
2022/01/04 08:49:57;;;;;;;38.00;20.47;;;12.60;67.50;;;12.69;49.00;94892.75;4992583;28;21076;-63
2022/01/04 08:52:26;;;;;;;40.27;21.23;;;12.60;67.10;;;12.74;49.20;94896.59;4990283;28;20545;-64
2022/01/04 08:54:54;;;;;;;37.07;21.80;;;12.60;67.30;;;12.82;48.90;94895.00;4990533;28;20469;-62
2022/01/04 08:57:23;;;;;;;41.40;26.67;;;12.70;67.00;;;12.86;49.10;94897.19;4990325;28;20458;-59
2022/01/04 08:59:54;;;;;;;48.23;30.13;;;12.70;67.10;;;12.90;49.54;94898.53;4990885;28;20466;-63
2022/01/04 09:02:22;;;;;;;52.53;31.20;;;12.80;68.60;;;12.91;46.68;94889.63;4985837;28;21119;-61
2022/01/04 09:04:49;;;;;;;49.33;29.93;;;12.80;63.60;;;12.82;48.14;94882.63;4990931;28;20474;-59
2022/01/04 09:07:17;;;;;;;49.97;27.50;;;12.70;65.30;;;12.82;48.97;94879.16;4990027;28;20459;-60
2022/01/04 09:09:44;;;;;;;53.67;31.10;;;12.70;66.60;;;12.93;49.09;94883.38;4990147;28;20459;-59
2022/01/04 09:12:14;;;;;;;45.87;28.40;;;12.70;67.00;;;13.10;48.47;94866.66;4987859;28;20487;-59
2022/01/04 09:14:56;;;;;;;47.83;28.47;;;12.90;67.00;;;13.33;48.54;94868.78;4988222;28;20993;-59
2022/01/04 09:20:11;;;;;;;44.00;26.40;;;13.30;66.20;;;13.90;46.91;94860.31;4985317;28;20457;-64
2022/01/04 09:22:39;;;;;;;44.53;26.63;;;13.60;64.60;;;14.27;46.80;94844.03;4991160;28;20447;-65
2022/01/04 09:25:07;;;;;;;37.33;24.17;;;14.00;64.70;;;14.72;46.22;94849.03;4990018;28;20478;-64
2022/01/04 09:27:36;;;;;;;34.40;23.40;;;14.40;63.90;;;15.19;45.80;94840.38;4987525;28;20458;-66
2022/01/04 09:30:05;;;;;;;39.87;23.77;;;14.80;63.00;;;15.71;44.93;94834.59;4987165;28;20487;-60
2022/01/04 09:32:33;;;;;;;30.57;22.10;;;15.30;61.70;;;16.22;43.91;94830.69;4988328;28;20466;-65
2022/01/04 09:35:00;;;;;;;32.33;20.20;;;15.80;60.00;;;16.71;43.08;94825.03;4990391;28;20471;-64
2022/01/04 09:37:28;;;;;;;32.30;18.77;;;16.20;59.00;;;17.13;42.28;94814.88;4990969;28;20486;-60
2022/01/04 09:39:55;;;;;;;32.23;17.00;;;16.70;57.20;;;17.47;41.92;94813.53;4990339;28;20479;-65
2022/01/04 09:42:22;;;;;;;25.53;15.57;;;17.00;56.50;;;17.80;41.22;94805.97;4992023;28;20443;-64
2022/01/04 09:44:51;;;;;;;19.17;15.10;;;17.30;56.40;;;18.20;41.11;94801.16;4991079;28;20467;-64
2022/01/04 09:47:19;;;;;;;22.73;16.43;;;17.70;55.40;;;18.66;40.63;94799.94;4992431;28;20466;-63
2022/01/04 09:49:46;;;;;;;23.83;13.63;;;18.10;54.80;;;19.15;40.13;94793.78;4989557;28;21004;-60
2022/01/04 09:52:15;;;;;;;26.47;14.50;;;18.60;54.30;;;19.56;38.93;94788.69;4992741;28;20453;-59
2022/01/04 09:54:42;;;;;;;26.80;14.03;;;19.00;52.90;;;19.95;38.00;94787.25;4990219;28;20471;-59
2022/01/04 09:57:10;;;;;;;23.73;15.60;;;19.40;50.60;;;20.28;36.99;94773.16;4990564;28;20521;-64
2022/01/04 09:59:37;;;;;;;24.27;13.80;;;19.80;51.00;;;20.62;37.06;94772.19;4990681;28;20450;-58
2022/01/04 10:02:17;;;;;;;22.43;15.57;;;20.10;49.90;;;21.00;36.14;94755.53;4989063;28;20478;-58
2022/01/04 10:04:45;;;;;;;22.43;14.47;;;20.50;49.00;;;21.36;36.42;94751.56;4989419;28;20450;-64
2022/01/04 10:07:12;;;;;;;25.73;16.00;;;20.80;49.40;;;21.65;35.62;94746.78;4990137;28;20555;-67
2022/01/04 10:09:44;;;;;;;21.10;15.13;;;21.10;47.90;;;21.95;34.81;94754.25;4990982;28;20467;-65
2022/01/04 10:12:12;;;;;;;17.63;13.60;;;21.50;46.90;;;22.23;34.05;94739.69;4990433;28;20549;-64
2022/01/04 10:14:41;;;;;;;20.63;12.80;;;21.70;45.40;;;22.38;33.86;94743.75;4987672;28;20827;-64
2022/01/04 10:17:10;;;;;;;26.77;14.67;;;21.90;45.60;;;22.61;32.30;94733.50;4989280;28;20579;-64
2022/01/04 10:19:41;;;;;;;23.43;16.10;;;22.10;44.70;;;22.85;33.62;94737.19;4989358;28;20455;-59
2022/01/04 10:22:20;;;;;;;22.90;16.80;;;22.30;44.70;;;23.07;32.96;94735.78;4987608;28;20452;-64
2022/01/04 10:24:49;;;;;;;27.30;19.57;;;22.60;44.70;;;23.26;33.30;94733.16;4989120;28;20463;-64
2022/01/04 10:27:28;;;;;;;31.43;21.30;;;22.80;44.20;;;23.44;32.57;94724.28;4991260;28;20862;-60
2022/01/04 10:30:22;;;;;;;41.60;24.20;;;23.00;43.00;;;23.58;31.08;94719.59;4993291;28;20454;-59